createdAt,value
2022-08-19T00:02:00.827Z,6.60
2022-08-19T00:04:34.309Z,4.85
2022-08-19T00:07:02.482Z,5.20
2022-08-19T00:09:31.370Z,3.53
2022-08-19T00:12:01.484Z,3.55
2022-08-19T00:14:33.041Z,5.35
2022-08-19T00:17:02.798Z,4.78
2022-08-19T00:19:31.923Z,3.35
2022-08-19T00:22:00.312Z,4.43
2022-08-19T00:24:29.843Z,3.42
2022-08-19T00:27:24.975Z,3.28
2022-08-19T00:29:52.867Z,4.13
2022-08-19T00:32:21.916Z,3.13
2022-08-19T00:34:49.998Z,2.92
2022-08-19T00:37:19.728Z,3.10
2022-08-19T00:39:49.237Z,4.10
2022-08-19T00:42:17.393Z,2.22
2022-08-19T00:44:46.032Z,5.40
2022-08-19T00:47:14.330Z,2.67
2022-08-19T00:49:58.747Z,5.50
2022-08-19T00:52:31.551Z,3.03
2022-08-19T00:55:01.040Z,4.40
2022-08-19T00:57:37.422Z,4.25
2022-08-19T01:00:13.921Z,3.65
2022-08-19T01:02:43.783Z,3.22
2022-08-19T01:05:16.983Z,2.47
2022-08-19T01:07:49.699Z,4.07
2022-08-19T01:10:23.147Z,2.17
2022-08-19T01:12:52.746Z,3.13
2022-08-19T01:15:26.545Z,3.35
2022-08-19T01:17:58.203Z,2.60
2022-08-19T01:20:26.768Z,2.80
2022-08-19T01:22:58.724Z,4.32
2022-08-19T01:25:45.045Z,2.22
2022-08-19T01:28:39.930Z,4.05
2022-08-19T01:31:27.293Z,3.47
2022-08-19T01:33:58.876Z,3.17
2022-08-19T01:36:32.873Z,3.50
2022-08-19T01:39:02.371Z,4.10
2022-08-19T01:41:30.389Z,2.63
2022-08-19T01:44:09.985Z,4.00
2022-08-19T01:46:49.455Z,3.78
2022-08-19T01:49:23.722Z,4.43
2022-08-19T01:51:52.063Z,2.88
2022-08-19T01:54:27.519Z,3.42
2022-08-19T01:57:04.887Z,2.85
2022-08-19T01:59:34.550Z,2.50
2022-08-19T02:02:02.831Z,2.90
2022-08-19T02:04:31.963Z,2.75
2022-08-19T02:07:00.272Z,3.05
2022-08-19T02:09:28.318Z,5.20
2022-08-19T02:11:56.584Z,5.22
2022-08-19T02:14:29.429Z,4.28
2022-08-19T02:16:57.576Z,4.60
2022-08-19T02:19:26.681Z,4.55
2022-08-19T02:21:54.676Z,4.63
2022-08-19T02:24:22.724Z,3.90
2022-08-19T02:26:51.781Z,6.63
2022-08-19T02:29:20.043Z,4.10
2022-08-19T02:31:48.282Z,4.05
2022-08-19T02:34:19.057Z,4.90
2022-08-19T02:36:51.980Z,4.10
2022-08-19T02:39:20.627Z,4.65
2022-08-19T02:41:50.205Z,4.63
2022-08-19T02:44:30.589Z,4.82
2022-08-19T02:47:02.125Z,4.25
2022-08-19T02:49:30.130Z,4.65
2022-08-19T02:52:03.387Z,6.25
2022-08-19T02:54:31.454Z,4.70
2022-08-19T02:57:00.197Z,4.72
2022-08-19T02:59:32.179Z,5.13
2022-08-19T03:02:00.218Z,6.20
2022-08-19T03:04:28.330Z,5.35
2022-08-19T03:06:59.567Z,5.07
2022-08-19T03:09:31.693Z,5.55
2022-08-19T03:11:59.625Z,7.20
2022-08-19T03:14:28.062Z,6.72
2022-08-19T03:16:57.797Z,6.85
2022-08-19T03:19:25.983Z,5.72
2022-08-19T03:21:55.424Z,6.60
2022-08-19T03:24:23.521Z,5.75
2022-08-19T03:27:00.331Z,7.18
2022-08-19T03:29:33.767Z,6.88
2022-08-19T03:32:19.855Z,8.20
2022-08-19T03:35:00.956Z,6.97
2022-08-19T03:37:29.199Z,6.70
2022-08-19T03:39:57.377Z,7.15
2022-08-19T03:42:38.187Z,7.85
2022-08-19T03:45:17.134Z,7.55
2022-08-19T03:47:47.113Z,7.55
2022-08-19T03:52:45.520Z,8.15
2022-08-19T03:55:18.011Z,8.05
2022-08-19T03:57:47.492Z,9.32
2022-08-19T04:00:16.050Z,8.90
2022-08-19T04:02:58.299Z,7.60
2022-08-19T04:05:30.527Z,7.43
2022-08-19T04:08:00.677Z,8.73
2022-08-19T04:10:29.850Z,7.55
2022-08-19T04:13:20.808Z,8.70
2022-08-19T04:15:48.950Z,9.27
2022-08-19T04:18:18.225Z,8.00
2022-08-19T04:20:48.257Z,10.70
2022-08-19T04:23:16.825Z,8.57
2022-08-19T04:25:45.856Z,8.02
2022-08-19T04:28:16.210Z,8.53
2022-08-19T04:30:47.640Z,9.43
2022-08-19T04:33:19.870Z,8.95
2022-08-19T04:35:56.158Z,7.97
2022-08-19T04:38:24.302Z,7.25
2022-08-19T04:41:11.919Z,8.18
2022-08-19T04:43:40.920Z,7.40
2022-08-19T04:46:37.542Z,7.95
2022-08-19T04:49:10.399Z,7.80
2022-08-19T04:51:45.477Z,7.95
2022-08-19T04:54:15.175Z,6.63
2022-08-19T04:56:55.650Z,7.70
2022-08-19T04:59:24.258Z,8.57
2022-08-19T05:01:52.484Z,6.60
2022-08-19T05:04:22.937Z,7.45
2022-08-19T05:06:52.367Z,7.95
2022-08-19T05:09:27.551Z,6.75
2022-08-19T05:11:56.244Z,6.78
2022-08-19T05:14:24.811Z,7.65
2022-08-19T05:17:23.750Z,7.78
2022-08-19T05:20:02.445Z,8.07
2022-08-19T05:22:35.603Z,9.73
2022-08-19T05:25:13.146Z,7.38
2022-08-19T05:27:45.154Z,7.60
2022-08-19T05:30:14.245Z,8.30
2022-08-19T05:32:43.963Z,7.68
2022-08-19T05:35:13.656Z,9.00
2022-08-19T05:37:42.215Z,8.80
2022-08-19T05:40:11.733Z,7.88
2022-08-19T05:42:42.123Z,7.45
2022-08-19T05:45:10.645Z,12.48
2022-08-19T05:47:38.901Z,9.10
2022-08-19T05:50:10.775Z,8.90
2022-08-19T05:52:57.691Z,9.45
2022-08-19T05:55:26.860Z,8.63
2022-08-19T05:57:54.901Z,7.90
2022-08-19T06:00:24.781Z,9.52
2022-08-19T06:02:53.816Z,7.00
2022-08-19T06:05:22.242Z,8.80
2022-08-19T06:07:50.586Z,8.68
2022-08-19T06:10:18.891Z,8.15
2022-08-19T06:12:47.125Z,9.05
2022-08-19T06:15:16.118Z,6.70
2022-08-19T06:17:46.293Z,8.97
2022-08-19T06:20:16.913Z,7.60
2022-08-19T06:22:50.764Z,8.60
2022-08-19T06:25:20.107Z,6.45
2022-08-19T06:28:11.866Z,6.40
2022-08-19T06:30:39.846Z,5.82
2022-08-19T06:33:07.837Z,5.63
2022-08-19T06:35:42.176Z,7.10
2022-08-19T06:38:11.939Z,6.38
2022-08-19T06:40:40.098Z,8.25
2022-08-19T06:43:09.350Z,7.28
2022-08-19T06:45:40.502Z,6.57
2022-08-19T06:48:09.127Z,7.32
2022-08-19T06:50:39.866Z,6.90
2022-08-19T06:53:11.858Z,7.60
2022-08-19T06:55:41.994Z,8.18
2022-08-19T06:58:10.897Z,7.43
2022-08-19T07:00:40.977Z,6.03
2022-08-19T07:05:45.455Z,6.53
2022-08-19T07:08:16.184Z,6.57
2022-08-19T07:10:47.884Z,6.10
2022-08-19T07:13:15.960Z,7.45
2022-08-19T07:15:46.232Z,8.13
2022-08-19T07:18:14.416Z,7.43
2022-08-19T07:20:44.592Z,7.30
2022-08-19T07:23:16.114Z,13.10
2022-08-19T07:25:52.843Z,8.23
2022-08-19T07:28:23.897Z,7.65
2022-08-19T07:30:53.553Z,6.35
2022-08-19T07:33:22.459Z,8.02
2022-08-19T07:35:51.573Z,9.30
2022-08-19T07:38:20.726Z,9.13
2022-08-19T07:40:48.788Z,8.43
2022-08-19T07:43:17.387Z,8.32
2022-08-19T07:45:49.936Z,6.45
2022-08-19T07:48:17.979Z,6.63
2022-08-19T07:50:46.067Z,7.28
2022-08-19T07:53:14.211Z,8.20
2022-08-19T07:55:43.816Z,7.90
2022-08-19T08:03:16.544Z,15.40
2022-08-19T08:06:03.711Z,12.20
2022-08-19T08:08:50.388Z,9.27
2022-08-19T08:11:24.694Z,10.85
2022-08-19T08:14:00.420Z,9.40
2022-08-19T08:16:34.700Z,11.95
2022-08-19T08:19:03.055Z,10.80
2022-08-19T08:21:36.211Z,12.45
2022-08-19T08:24:06.132Z,12.77
2022-08-19T08:26:57.452Z,14.25
2022-08-19T08:29:47.206Z,13.48
2022-08-19T08:32:16.535Z,12.77
2022-08-19T08:34:44.859Z,13.52
2022-08-19T08:37:16.161Z,11.98
2022-08-19T08:39:44.606Z,12.38
2022-08-19T08:42:26.161Z,12.57
2022-08-19T08:45:02.902Z,14.57
2022-08-19T08:47:41.960Z,13.48
2022-08-19T08:50:21.317Z,13.70
2022-08-19T08:52:52.990Z,13.93
2022-08-19T08:55:26.358Z,15.18
2022-08-19T08:58:09.189Z,15.30
2022-08-19T09:00:44.377Z,13.73
2022-08-19T09:03:21.647Z,14.75
2022-08-19T09:06:11.942Z,15.30
2022-08-19T09:09:15.655Z,15.55
2022-08-19T09:12:26.791Z,15.80
2022-08-19T09:15:14.185Z,14.20
2022-08-19T09:17:42.241Z,17.42
2022-08-19T09:20:21.363Z,16.65
2022-08-19T09:22:52.628Z,17.85
2022-08-19T09:25:24.612Z,21.13
2022-08-19T09:28:02.502Z,18.17
2022-08-19T09:30:36.208Z,20.52
2022-08-19T09:33:04.561Z,20.40
2022-08-19T09:35:32.876Z,21.70
2022-08-19T09:38:18.513Z,22.15
2022-08-19T09:40:46.730Z,21.08
2022-08-19T09:43:14.784Z,19.75
2022-08-19T09:45:43.796Z,20.13
2022-08-19T09:48:11.955Z,21.95
2022-08-19T09:50:51.473Z,22.75
2022-08-19T09:53:25.481Z,21.23
2022-08-19T09:55:57.268Z,20.15
2022-08-19T09:58:29.215Z,19.05
2022-08-19T10:01:00.272Z,22.40
2022-08-19T10:03:30.517Z,18.63
2022-08-19T10:06:01.061Z,19.23
2022-08-19T10:08:36.276Z,23.13
2022-08-19T10:11:27.540Z,19.95
2022-08-19T10:13:54.628Z,20.92
2022-08-19T10:16:28.569Z,20.50
2022-08-19T10:18:59.066Z,17.00
2022-08-19T10:21:32.369Z,16.48
2022-08-19T10:24:05.538Z,15.55
2022-08-19T10:26:38.676Z,17.13
2022-08-19T10:29:09.187Z,18.17
2022-08-19T10:31:58.805Z,17.30
2022-08-19T10:34:29.164Z,19.50
2022-08-19T10:37:01.061Z,18.75
2022-08-19T10:39:41.162Z,16.15
2022-08-19T10:42:13.529Z,19.63
2022-08-19T10:44:43.016Z,20.13
2022-08-19T10:47:18.015Z,14.38
2022-08-19T10:50:15.528Z,18.65
2022-08-19T10:52:50.222Z,15.98
2022-08-19T10:55:42.463Z,13.48
2022-08-19T10:58:16.932Z,15.00
2022-08-19T11:00:45.255Z,15.02
2022-08-19T11:03:13.962Z,12.15
2022-08-19T11:05:46.767Z,13.90
2022-08-19T11:08:22.825Z,15.70
2022-08-19T11:10:59.878Z,12.85
2022-08-19T11:13:30.320Z,12.70
2022-08-19T11:16:07.739Z,14.20
2022-08-19T11:18:39.099Z,14.40
2022-08-19T11:21:26.405Z,12.68
2022-08-19T11:23:57.805Z,15.48
2022-08-19T11:26:27.318Z,12.73
2022-08-19T11:28:56.884Z,12.48
2022-08-19T11:31:29.112Z,13.40
2022-08-19T11:34:05.149Z,14.23
2022-08-19T11:36:36.696Z,12.57
2022-08-19T11:39:08.148Z,13.82
2022-08-19T11:41:37.775Z,12.82
2022-08-19T11:44:06.467Z,14.75
2022-08-19T11:46:34.534Z,14.23
2022-08-19T11:49:05.257Z,14.60
2022-08-19T11:51:35.478Z,11.90
2022-08-19T11:54:05.862Z,17.58
2022-08-19T11:56:34.327Z,15.88
2022-08-19T11:59:03.122Z,14.90
2022-08-19T12:01:31.582Z,15.10
2022-08-19T12:04:00.502Z,14.63
2022-08-19T12:06:33.216Z,14.02
2022-08-19T12:09:06.105Z,14.13
2022-08-19T12:11:35.602Z,14.82
2022-08-19T12:14:04.050Z,15.55
2022-08-19T12:16:34.625Z,14.85
2022-08-19T12:19:06.823Z,15.75
2022-08-19T12:21:37.133Z,14.07
2022-08-19T12:24:07.774Z,13.75
2022-08-19T12:26:53.039Z,14.70
2022-08-19T12:29:24.165Z,13.63
2022-08-19T12:31:53.164Z,13.60
2022-08-19T12:34:21.851Z,15.00
2022-08-19T12:36:51.952Z,15.02
2022-08-19T12:39:19.953Z,14.38
2022-08-19T12:41:53.989Z,15.82
2022-08-19T12:44:28.926Z,14.82
2022-08-19T12:46:58.967Z,16.25
2022-08-19T12:49:52.689Z,16.05
2022-08-19T12:52:19.885Z,16.88
2022-08-19T12:54:54.678Z,18.77
2022-08-19T12:57:31.952Z,17.17
2022-08-19T13:00:15.156Z,14.38
2022-08-19T13:02:47.402Z,17.25
2022-08-19T13:05:21.597Z,14.60
2022-08-19T13:07:50.354Z,13.77
2022-08-19T13:10:21.664Z,13.25
2022-08-19T13:12:52.211Z,14.68
2022-08-19T13:15:23.949Z,13.23
2022-08-19T13:17:58.049Z,14.35
2022-08-19T13:20:26.953Z,15.98
2022-08-19T13:22:56.021Z,16.15
2022-08-19T13:25:25.425Z,15.97
2022-08-19T13:27:53.684Z,14.35
2022-08-19T13:30:44.834Z,20.83
2022-08-19T13:33:13.000Z,22.48
2022-08-19T13:35:49.169Z,23.33
2022-08-19T13:38:22.988Z,22.85
2022-08-19T13:40:54.121Z,27.23
2022-08-19T13:43:25.383Z,26.05
2022-08-19T13:45:57.801Z,27.30
2022-08-19T13:48:28.303Z,26.00
2022-08-19T13:50:56.884Z,23.15
2022-08-19T13:53:25.129Z,30.08
2022-08-19T13:55:56.361Z,27.88
2022-08-19T13:58:24.577Z,23.05
2022-08-19T14:00:52.808Z,25.05
2022-08-19T14:03:21.110Z,22.42
2022-08-19T14:05:51.154Z,21.17
2022-08-19T14:08:19.908Z,20.65
2022-08-19T14:10:49.934Z,22.23
2022-08-19T14:13:23.800Z,20.02
2022-08-19T14:15:52.636Z,17.98
2022-08-19T14:18:21.327Z,20.57
2022-08-19T14:20:49.573Z,18.45
2022-08-19T14:23:17.909Z,19.77
2022-08-19T14:25:46.049Z,17.38
2022-08-19T14:28:14.237Z,15.52
2022-08-19T14:30:42.297Z,15.32
2022-08-19T14:33:10.397Z,17.58
2022-08-19T14:35:39.345Z,18.90
2022-08-19T14:38:16.990Z,19.50
2022-08-19T14:43:33.465Z,21.27
2022-08-19T14:46:02.610Z,19.17
2022-08-19T14:48:51.659Z,19.73
2022-08-19T14:53:52.506Z,16.42
2022-08-19T14:56:23.942Z,16.77
2022-08-19T14:58:53.701Z,19.45
2022-08-19T15:01:24.300Z,18.02
2022-08-19T15:03:57.440Z,21.60
2022-08-19T15:06:26.534Z,22.33
2022-08-19T15:08:58.563Z,57.90
2022-08-19T15:11:32.865Z,44.17
2022-08-19T15:14:02.937Z,42.45
2022-08-19T15:16:31.159Z,47.70
2022-08-19T15:19:01.512Z,36.05
2022-08-19T15:21:31.297Z,72.40
2022-08-19T15:24:00.698Z,45.63
2022-08-19T15:26:36.885Z,45.13
2022-08-19T15:29:06.257Z,72.55
2022-08-19T15:31:38.117Z,64.60
2022-08-19T15:34:07.779Z,29.75
2022-08-19T15:36:38.713Z,31.05
2022-08-19T15:39:07.981Z,22.98
2022-08-19T15:41:37.908Z,23.08
2022-08-19T15:44:10.965Z,20.80
2022-08-19T15:46:41.600Z,22.52
2022-08-19T15:49:12.216Z,21.67
2022-08-19T15:51:43.671Z,24.20
2022-08-19T15:54:17.368Z,22.77
2022-08-19T15:57:03.690Z,30.75
2022-08-19T15:59:51.054Z,30.83
2022-08-19T16:02:39.869Z,29.55
2022-08-19T16:05:37.190Z,21.00
2022-08-19T16:08:05.786Z,20.20
2022-08-19T16:10:33.901Z,25.70
2022-08-19T16:13:05.139Z,24.45
2022-08-19T16:15:34.455Z,22.05
2022-08-19T16:18:04.766Z,22.50
2022-08-19T16:20:33.234Z,20.38
2022-08-19T16:23:05.598Z,25.98
2022-08-19T16:25:33.601Z,25.20
2022-08-19T16:28:07.828Z,29.50
2022-08-19T16:30:39.678Z,33.53
2022-08-19T16:33:09.133Z,29.27
2022-08-19T16:36:01.809Z,25.42
2022-08-19T16:38:35.574Z,40.03
2022-08-19T16:41:03.602Z,48.97
2022-08-19T16:43:32.995Z,153.27
2022-08-19T16:46:02.234Z,53.45
2022-08-19T16:48:31.632Z,67.28
2022-08-19T16:51:01.332Z,48.38
2022-08-19T16:53:32.487Z,33.88
2022-08-19T16:56:00.750Z,27.88
2022-08-19T16:58:32.191Z,33.40
2022-08-19T17:01:03.937Z,43.53
2022-08-19T17:03:35.974Z,36.58
2022-08-19T17:06:18.263Z,38.38
2022-08-19T17:08:55.062Z,46.25
2022-08-19T17:11:26.083Z,43.55
2022-08-19T17:13:56.136Z,85.13
2022-08-19T17:16:26.892Z,53.67
2022-08-19T17:18:57.023Z,48.08
2022-08-19T17:24:20.356Z,41.80
2022-08-19T17:26:48.375Z,52.42
2022-08-19T17:29:20.294Z,46.15
2022-08-19T17:31:48.277Z,57.63
2022-08-19T17:34:17.722Z,267.67
2022-08-19T17:36:45.739Z,252.43
2022-08-19T17:39:15.232Z,242.23
2022-08-19T17:41:44.988Z,204.18
2022-08-19T17:44:12.911Z,137.10
2022-08-19T17:46:40.896Z,92.40
2022-08-19T17:49:10.075Z,74.63
2022-08-19T17:51:41.957Z,81.07
2022-08-19T17:54:14.396Z,46.10
2022-08-19T17:56:43.346Z,69.47
2022-08-19T17:59:14.112Z,44.85
2022-08-19T18:01:53.661Z,42.00
2022-08-19T18:06:55.929Z,57.80
2022-08-19T18:09:41.380Z,165.93
2022-08-19T18:12:12.850Z,130.43
2022-08-19T18:14:43.873Z,76.63
2022-08-19T18:17:23.660Z,74.47
2022-08-19T18:22:33.577Z,41.00
2022-08-19T18:25:03.723Z,30.33
2022-08-19T18:27:31.966Z,33.50
2022-08-19T18:30:00.209Z,34.20
2022-08-19T18:32:34.790Z,46.40
2022-08-19T18:35:06.598Z,48.10
2022-08-19T18:37:34.564Z,48.95
2022-08-19T18:40:43.276Z,48.85
2022-08-19T18:43:14.546Z,53.22
2022-08-19T18:46:03.083Z,61.22
2022-08-19T18:48:50.288Z,59.55
2022-08-19T18:51:20.240Z,47.28
2022-08-19T18:56:20.383Z,53.80
2022-08-19T18:58:52.509Z,59.17
2022-08-19T19:01:26.985Z,41.30
2022-08-19T19:03:56.636Z,44.33
2022-08-19T19:06:30.422Z,51.38
2022-08-19T19:08:59.002Z,57.60
2022-08-19T19:11:34.535Z,62.17
2022-08-19T19:14:04.210Z,122.35
2022-08-19T19:16:33.315Z,95.00
2022-08-19T19:19:01.571Z,55.97
2022-08-19T19:21:34.069Z,37.08
2022-08-19T19:24:03.335Z,62.85
2022-08-19T19:26:31.670Z,50.05
2022-08-19T19:29:00.456Z,49.25
2022-08-19T19:31:28.542Z,38.60
2022-08-19T19:33:57.570Z,79.00
2022-08-19T19:36:25.599Z,55.83
2022-08-19T19:38:53.979Z,52.78
2022-08-19T19:41:28.949Z,36.90
2022-08-19T19:44:29.296Z,47.15
2022-08-19T19:46:51.289Z,63.40
2022-08-19T19:49:19.358Z,48.97
2022-08-19T19:51:47.415Z,60.03
2022-08-19T19:54:15.643Z,52.28
2022-08-19T19:56:45.947Z,34.30
2022-08-19T19:59:14.034Z,39.97
2022-08-19T20:01:46.869Z,143.35
2022-08-19T20:04:17.293Z,54.20
2022-08-19T20:06:46.945Z,59.85
2022-08-19T20:09:20.022Z,57.38
2022-08-19T20:11:56.565Z,48.70
2022-08-19T20:14:37.892Z,41.45
2022-08-19T20:17:06.446Z,35.92
2022-08-19T20:19:37.585Z,46.90
2022-08-19T20:22:10.072Z,47.75
2022-08-19T20:24:40.011Z,49.58
2022-08-19T20:27:08.021Z,49.23
2022-08-19T20:29:41.437Z,43.63
2022-08-19T20:32:11.300Z,51.08
2022-08-19T20:34:41.291Z,44.75
2022-08-19T20:39:41.397Z,52.15
2022-08-19T20:42:09.360Z,46.83
2022-08-19T20:44:40.176Z,81.28
2022-08-19T20:47:08.529Z,101.03
2022-08-19T20:49:37.332Z,68.95
2022-08-19T20:52:07.144Z,58.50
2022-08-19T20:54:35.630Z,65.20
2022-08-19T20:57:04.371Z,51.97
2022-08-19T20:59:32.482Z,55.40
2022-08-19T21:02:00.553Z,32.72
2022-08-19T21:04:28.556Z,28.75
2022-08-19T21:06:59.806Z,40.75
2022-08-19T21:09:27.884Z,46.30
2022-08-19T21:11:56.224Z,39.90
2022-08-19T21:14:24.527Z,32.22
2022-08-19T21:16:52.621Z,35.20
2022-08-19T21:19:23.910Z,46.70
2022-08-19T21:21:55.073Z,43.33
2022-08-19T21:24:26.363Z,40.78
2022-08-19T21:26:58.533Z,33.15
2022-08-19T21:29:26.549Z,28.92
2022-08-19T21:31:54.598Z,27.40
2022-08-19T21:34:24.407Z,48.47
2022-08-19T21:36:52.477Z,30.92
2022-08-19T21:39:20.642Z,35.40
2022-08-19T21:41:50.559Z,45.80
2022-08-19T21:46:50.386Z,31.58
2022-08-19T21:49:19.981Z,35.90
2022-08-19T21:51:47.957Z,40.95
2022-08-19T21:54:16.089Z,51.97
2022-08-19T21:56:44.373Z,41.38
2022-08-19T21:59:12.380Z,37.00
2022-08-19T22:01:42.780Z,35.13
2022-08-19T22:04:14.087Z,40.38
2022-08-19T22:06:42.118Z,38.80
2022-08-19T22:09:14.306Z,40.67
2022-08-19T22:11:44.113Z,36.45
2022-08-19T22:14:12.205Z,38.53
2022-08-19T22:16:40.312Z,51.05
2022-08-19T22:19:10.530Z,48.80
2022-08-19T22:21:40.722Z,78.50
2022-08-19T22:24:11.521Z,42.72
2022-08-19T22:26:39.818Z,44.45
2022-08-19T22:29:08.164Z,40.92
2022-08-19T22:31:38.246Z,37.70
2022-08-19T22:34:08.923Z,42.22
2022-08-19T22:36:37.192Z,48.30
2022-08-19T22:39:05.895Z,39.38
2022-08-19T22:41:35.321Z,38.92
2022-08-19T22:44:04.487Z,36.45
2022-08-19T22:46:34.533Z,44.58
2022-08-19T22:49:02.882Z,35.70
2022-08-19T22:51:49.939Z,38.50
2022-08-19T22:54:18.743Z,39.15
2022-08-19T22:56:46.922Z,35.75
2022-08-19T22:59:15.074Z,39.38
2022-08-19T23:01:44.948Z,42.97
2022-08-19T23:06:42.384Z,36.33
2022-08-19T23:09:16.736Z,37.85
2022-08-19T23:11:45.629Z,33.85
2022-08-19T23:14:14.978Z,36.40
2022-08-19T23:16:43.920Z,32.50
2022-08-19T23:19:14.108Z,36.75
2022-08-19T23:21:44.085Z,30.35
2022-08-19T23:27:01.353Z,34.92
2022-08-19T23:29:48.523Z,36.00
2022-08-19T23:32:19.231Z,30.60
2022-08-19T23:34:48.029Z,36.70
2022-08-19T23:37:16.565Z,31.25
2022-08-19T23:39:45.328Z,30.33
2022-08-19T23:42:14.136Z,35.80
2022-08-19T23:44:51.406Z,38.28
2022-08-19T23:47:21.457Z,42.25
2022-08-19T23:49:49.973Z,54.50
2022-08-19T23:52:18.039Z,33.10
2022-08-19T23:54:46.210Z,31.63
2022-08-19T23:57:14.793Z,33.33
2022-08-19T23:59:45.913Z,31.98
